Edenton, North Carolina
Current Conditions -  °F | °C
As of 10:55 AM on Thursday 23 Oct 2014 (Local Time) from KEDE Reporting Station
Clear Clear  
Wind Chill: 60°   Ceiling: Unl
Heat Index: 60°   Visibility: 10mi
Dew Point: 45°   Wind: 16mph
Humidity: 57%   Direction: 330°NNW
Pressure: 29.93"   Gusts: 26mph
Location:  36.07°N, 76.6°W
Report Text: KEDE 231455Z AUTO 33014G23KT 10SM CLR 16/07 A2993 RMK AO2 T01560070
Loading
Personal Weather Stations






























Interactive Weather Map
Tropical Storm Tracking
New forecast layout! Learn more

10-Day Weather Forecast

Advertisements
Track Severe Weather on mobile